Time;durP1;ratioP1;P1;durP2;ratioP2;P2;SDS_P1;SDS_P2;PMS_P1;PMS_P2;Temp;Humidity;BMP_temperature;BMP_pressure;BME280_temperature;BME280_humidity;BME280_pressure;Samples;Min_cycle;Max_cycle;Signal;HPM_P1;HPM_P2
2022/09/12 00:02:23;;;;;;;51.22;49.28;;;19.10;76.30;;;;;;5109225;28;20058;-79
2022/09/12 00:04:48;;;;;;;;;;;19.00;76.30;;;;;;5111034;28;20908;-79
2022/09/12 00:07:14;;;;;;;51.30;49.30;;;19.00;76.30;;;;;;5109100;28;19995;-79
2022/09/12 00:09:40;;;;;;;53.58;51.53;;;19.00;76.30;;;;;;5110513;28;20040;-79
2022/09/12 00:12:06;;;;;;;54.08;51.97;;;19.00;76.30;;;;;;5092055;28;20032;-80
2022/09/12 00:14:34;;;;;;;52.95;50.95;;;18.90;76.40;;;;;;5108764;28;20034;-79
2022/09/12 00:17:01;;;;;;;54.45;52.35;;;18.90;76.40;;;;;;5110253;28;20039;-80
2022/09/12 00:19:29;;;;;;;52.78;50.78;;;18.90;76.40;;;;;;5110294;28;20128;-80
2022/09/12 00:21:55;;;;;;;53.13;51.08;;;18.90;76.50;;;;;;5108898;28;20033;-79
2022/09/12 00:24:21;;;;;;;53.30;51.22;;;18.90;76.60;;;;;;5108475;28;20054;-79
2022/09/12 00:26:47;;;;;;;50.40;48.50;;;18.90;76.50;;;;;;5091627;28;20035;-79
2022/09/12 00:29:18;;;;;;;48.60;46.70;;;18.90;76.50;;;;;;5108576;28;20065;-80
2022/09/12 00:31:44;;;;;;;49.35;47.45;;;18.90;76.50;;;;;;5110006;28;20032;-80
2022/09/12 00:34:10;;;;;;;50.55;48.58;;;18.90;76.50;;;;;;5109908;28;20030;-80
2022/09/12 00:36:37;;;;;;;52.03;50.03;;;18.90;76.50;;;;;;5110070;28;20027;-79
2022/09/12 00:39:04;;;;;;;50.65;48.65;;;19.00;76.60;;;;;;5109817;28;20479;-79
2022/09/12 00:41:33;;;;;;;51.58;49.58;;;19.00;76.60;;;;;;5109899;28;20039;-79
2022/09/12 00:44:01;;;;;;;53.45;51.35;;;19.00;76.60;;;;;;5109577;28;20206;-80
2022/09/12 00:46:37;;;;;;;53.08;50.97;;;19.00;76.60;;;;;;5109661;28;20492;-80
2022/09/12 00:49:14;;;;;;;54.70;52.60;;;19.00;76.50;;;;;;5109769;27;20286;-80
2022/09/12 00:51:51;;;;;;;59.53;57.22;;;19.00;76.60;;;;;;5109669;28;20294;-80
2022/09/12 00:54:23;;;;;;;57.00;54.80;;;19.00;76.50;;;;;;5108246;28;20028;-80
2022/09/12 00:56:53;;;;;;;57.35;55.15;;;19.00;76.60;;;;;;5109499;28;20450;-79
2022/09/12 00:59:28;;;;;;;57.78;55.55;;;18.90;76.50;;;;;;5108319;28;20106;-80
2022/09/12 01:01:55;;;;;;;57.40;55.20;;;18.90;76.50;;;;;;5109464;28;20349;-80
2022/09/12 01:04:23;;;;;;;57.72;55.47;;;18.90;76.50;;;;;;5109111;28;20042;-80
2022/09/12 01:06:49;;;;;;;61.72;59.33;;;18.90;76.50;;;;;;5109077;28;20031;-78
2022/09/12 01:09:20;;;;;;;56.13;53.92;;;18.80;76.50;;;;;;5109185;28;20514;-79
2022/09/12 01:11:47;;;;;;;56.85;54.65;;;18.70;76.40;;;;;;5108726;28;20024;-80
2022/09/12 01:14:15;;;;;;;58.58;56.28;;;18.80;76.60;;;;;;5090805;28;20407;-80
2022/09/12 01:16:42;;;;;;;55.92;53.72;;;18.70;76.60;;;;;;5109105;28;20031;-80
2022/09/12 01:19:38;;;;;;;57.25;55.00;;;18.70;76.70;;;;;;5108895;28;20023;-79
2022/09/12 01:22:28;;;;;;;52.63;50.53;;;18.70;76.80;;;;;;5108962;28;20089;-80
2022/09/12 01:25:27;;;;;;;56.78;54.58;;;18.70;76.70;;;;;;5108853;28;20458;-80
2022/09/12 01:28:18;;;;;;;58.40;56.10;;;18.70;76.70;;;;;;5108922;28;20507;-79
2022/09/12 01:31:03;;;;;;;54.33;52.22;;;18.80;76.70;;;;;;5108852;28;20038;-80
2022/09/12 01:33:41;;;;;;;56.47;54.28;;;18.80;76.70;;;;;;5107405;28;20061;-79
2022/09/12 01:36:25;;;;;;;56.28;54.08;;;18.80;76.70;;;;;;5107424;28;20379;-79
2022/09/12 01:39:03;;;;;;;55.15;52.95;;;18.80;76.70;;;;;;5107576;28;20460;-79
2022/09/12 01:41:35;;;;;;;55.40;53.20;;;18.80;76.70;;;;;;5107243;28;20028;-79
2022/09/12 01:44:09;;;;;;;60.88;58.47;;;18.90;76.70;;;;;;5108487;28;20027;-79
2022/09/12 01:46:48;;;;;;;62.08;59.60;;;18.90;76.60;;;;;;5108464;28;20028;-79
2022/09/12 01:49:25;;;;;;;64.93;62.33;;;18.90;76.60;;;;;;5108448;28;20015;-79
2022/09/12 01:52:14;;;;;;;64.18;61.65;;;18.80;76.50;;;;;;5108417;28;20048;-80
2022/09/12 01:55:03;;;;;;;62.15;59.65;;;18.80;76.60;;;;;;5106885;28;20499;-80
2022/09/12 01:57:47;;;;;;;63.42;60.92;;;18.80;76.60;;;;;;5106900;28;20408;-80
2022/09/12 02:00:13;;;;;;;62.10;59.60;;;18.80;76.70;;;;;;5108401;28;20027;-80
2022/09/12 02:02:56;;;;;;;62.90;60.40;;;18.80;76.70;;;;;;5108169;28;20028;-80
2022/09/12 02:05:35;;;;;;;61.30;58.90;;;18.80;76.70;;;;;;5106972;28;20032;-80
2022/09/12 02:08:10;;;;;;;63.63;61.03;;;18.80;76.70;;;;;;5108254;28;20376;-80
2022/09/12 02:10:59;;;;;;;65.28;62.67;;;18.90;76.70;;;;;;5108179;28;20016;-80
2022/09/12 02:13:59;;;;;;;66.38;63.78;;;18.90;76.70;;;;;;5108128;28;20402;-79
2022/09/12 02:16:39;;;;;;;62.30;59.80;;;18.80;76.70;;;;;;5107988;28;20033;-79
2022/09/12 02:19:16;;;;;;;63.63;61.05;;;18.80;76.70;;;;;;5107982;28;20576;-79
2022/09/12 02:21:55;;;;;;;69.00;66.22;;;18.80;76.80;;;;;;5106656;28;20030;-80
2022/09/12 02:24:30;;;;;;;67.40;64.72;;;18.80;76.70;;;;;;5107340;28;20207;-80
2022/09/12 02:27:02;;;;;;;68.50;65.80;;;18.80;76.70;;;;;;5106797;28;20019;-80
2022/09/12 02:29:29;;;;;;;68.93;66.20;;;18.80;76.70;;;;;;5106853;28;20070;-79
2022/09/12 02:32:03;;;;;;;69.93;67.13;;;18.80;76.70;;;;;;5107880;28;20076;-79
2022/09/12 02:34:54;;;;;;;72.15;69.25;;;18.80;76.70;;;;;;5106363;28;20484;-80
2022/09/12 02:37:32;;;;;;;70.80;68.00;;;18.70;76.70;;;;;;5106576;28;20047;-79
2022/09/12 02:39:59;;;;;;;70.82;68.03;;;18.70;76.70;;;;;;5107996;28;20019;-80
2022/09/12 02:42:24;;;;;;;72.97;70.07;;;18.70;76.80;;;;;;5107698;28;20042;-80
2022/09/12 02:44:52;;;;;;;73.13;70.22;;;18.70;76.80;;;;;;5107727;28;20023;-80
2022/09/12 02:47:42;;;;;;;78.78;75.68;;;18.70;76.80;;;;;;5107722;28;20529;-80
2022/09/12 02:50:09;;;;;;;76.65;73.65;;;18.70;76.80;;;;;;5107847;28;20024;-79
2022/09/12 02:52:35;;;;;;;79.35;76.20;;;18.60;76.70;;;;;;5106458;28;20028;-80
2022/09/12 02:55:03;;;;;;;84.28;80.93;;;18.60;76.70;;;;;;5106189;28;20045;-80
2022/09/12 02:57:29;;;;;;;76.55;73.45;;;18.60;76.80;;;;;;5106259;28;20496;-80
2022/09/12 02:59:59;;;;;;;77.78;74.68;;;18.60;76.80;;;;;;5107688;28;20038;-79
2022/09/12 03:02:34;;;;;;;77.07;73.97;;;18.60;76.90;;;;;;5107537;28;20020;-80
2022/09/12 03:05:11;;;;;;;74.38;71.38;;;18.60;76.90;;;;;;5107593;28;20442;-80
2022/09/12 03:07:49;;;;;;;72.53;69.63;;;18.60;76.90;;;;;;5107517;28;20027;-80
2022/09/12 03:10:45;;;;;;;73.13;70.18;;;18.60;76.90;;;;;;5106214;28;20019;-80
2022/09/12 03:13:29;;;;;;;74.22;71.22;;;18.70;76.90;;;;;;5106122;28;20387;-79
2022/09/12 03:16:15;;;;;;;76.43;73.32;;;18.70;76.80;;;;;;5107453;28;20421;-80
2022/09/12 03:18:59;;;;;;;80.93;77.63;;;18.70;76.80;;;;;;5107459;28;20035;-80
2022/09/12 03:21:52;;;;;;;71.50;68.60;;;18.70;76.90;;;;;;5107486;28;20047;-79
2022/09/12 03:24:50;;;;;;;76.28;73.18;;;18.70;76.90;;;;;;5091497;28;20041;-80
2022/09/12 03:27:19;;;;;;;70.15;67.25;;;18.70;76.90;;;;;;5090074;28;20122;-79
2022/09/12 03:29:47;;;;;;;74.90;71.85;;;18.70;76.90;;;;;;5106074;28;20126;-79
2022/09/12 03:32:13;;;;;;;74.35;71.35;;;18.70;77.00;;;;;;5107449;28;20053;-79
2022/09/12 03:34:38;;;;;;;71.93;69.03;;;18.70;76.90;;;;;;5107787;28;20031;-80
2022/09/12 03:37:05;;;;;;;76.35;73.25;;;18.70;76.90;;;;;;5111029;28;20031;-80
2022/09/12 03:39:31;;;;;;;74.38;71.38;;;18.70;76.90;;;;;;5092753;28;20036;-80
2022/09/12 03:41:57;;;;;;;;;;;18.80;76.90;;;;;;5111434;28;20464;-79
2022/09/12 03:44:23;;;;;;;71.97;69.07;;;18.70;76.90;;;;;;5110759;28;19915;-80
2022/09/12 03:46:49;;;;;;;68.57;65.78;;;18.80;76.90;;;;;;5109538;28;20026;-80
2022/09/12 03:49:15;;;;;;;;;;;18.80;76.90;;;;;;5109998;28;20023;-79
2022/09/12 03:51:42;;;;;;;67.70;64.90;;;18.80;76.90;;;;;;5109473;28;20291;-79
2022/09/12 03:54:08;;;;;;;69.60;66.75;;;18.80;76.90;;;;;;5110478;28;20105;-80
2022/09/12 03:56:34;;;;;;;74.38;71.32;;;18.80;76.90;;;;;;5110283;28;20074;-80
2022/09/12 03:59:00;;;;;;;;;;;18.80;76.90;;;;;;5109812;28;20052;-81
2022/09/12 04:01:26;;;;;;;66.88;64.18;;;18.90;76.90;;;;;;5110545;28;19999;-81
2022/09/12 04:03:51;;;;;;;75.82;72.72;;;18.90;76.80;;;;;;5092167;28;20028;-81
2022/09/12 04:06:20;;;;;;;71.30;68.40;;;18.80;76.80;;;;;;5110453;28;20024;-81
2022/09/12 04:08:51;;;;;;;67.80;65.00;;;18.80;76.90;;;;;;5110187;28;20019;-81
2022/09/12 04:11:17;;;;;;;66.53;63.83;;;18.80;76.90;;;;;;5109192;28;20024;-81
2022/09/12 04:13:44;;;;;;;66.07;63.38;;;18.80;77.00;;;;;;5108989;28;20076;-81
2022/09/12 04:16:11;;;;;;;64.32;61.72;;;18.80;77.00;;;;;;5110152;28;20031;-80
2022/09/12 04:18:37;;;;;;;60.13;57.72;;;18.80;77.00;;;;;;5110169;28;20563;-81
2022/09/12 04:21:04;;;;;;;;;;;18.70;77.00;;;;;;5109547;28;20118;-81
2022/09/12 04:23:30;;;;;;;62.55;60.05;;;18.60;77.10;;;;;;5108779;28;19953;-81
2022/09/12 04:25:58;;;;;;;56.30;54.00;;;18.50;77.20;;;;;;5091775;28;20031;-81
2022/09/12 04:28:25;;;;;;;51.17;49.15;;;18.50;77.30;;;;;;5110437;28;20031;-81
2022/09/12 04:30:51;;;;;;;51.10;49.10;;;18.30;77.30;;;;;;5092074;28;20032;-81
2022/09/12 04:33:17;;;;;;;47.55;45.65;;;18.10;77.50;;;;;;5108639;28;20027;-81
2022/09/12 04:35:44;;;;;;;46.63;44.83;;;18.00;77.70;;;;;;5110017;28;20062;-81
2022/09/12 04:38:10;;;;;;;47.30;45.40;;;17.90;77.90;;;;;;5108541;28;20031;-81
2022/09/12 04:40:36;;;;;;;;;;;17.90;78.00;;;;;;5092055;28;20036;-81
2022/09/12 04:43:01;;;;;;;43.47;41.78;;;17.90;77.90;;;;;;5109738;28;19912;-81
2022/09/12 04:45:27;;;;;;;43.50;41.80;;;17.80;77.90;;;;;;5108391;28;20024;-81
2022/09/12 04:47:53;;;;;;;42.72;41.03;;;17.80;77.90;;;;;;5107409;28;20110;-81
2022/09/12 04:50:18;;;;;;;42.55;40.85;;;17.70;77.90;;;;;;5091135;28;20027;-81
2022/09/12 04:52:51;;;;;;;44.70;42.90;;;17.80;78.00;;;;;;5109345;28;20032;-81
2022/09/12 04:55:17;;;;;;;41.97;40.33;;;17.80;77.90;;;;;;5091373;28;20039;-81
2022/09/12 04:57:43;;;;;;;42.28;40.58;;;17.80;77.90;;;;;;5109163;28;20047;-80
2022/09/12 05:00:13;;;;;;;43.55;41.85;;;17.80;77.80;;;;;;5091010;28;20035;-80
2022/09/12 05:02:40;;;;;;;41.67;40.08;;;17.90;77.70;;;;;;5108045;28;20035;-80
2022/09/12 05:05:06;;;;;;;39.17;37.65;;;17.90;77.70;;;;;;5108236;28;20560;-80
2022/09/12 05:07:32;;;;;;;;;;;17.90;77.50;;;;;;5091535;28;20023;-81
2022/09/12 05:09:58;;;;;;;38.78;37.28;;;17.90;77.50;;;;;;5109218;28;19911;-80
2022/09/12 05:12:24;;;;;;;38.25;36.75;;;17.90;77.50;;;;;;5109305;28;20035;-80
2022/09/12 05:14:50;;;;;;;35.85;34.45;;;17.90;77.50;;;;;;5107585;28;20106;-80
2022/09/12 05:17:16;;;;;;;34.50;33.15;;;18.00;77.50;;;;;;5109012;28;20092;-80
2022/09/12 05:19:42;;;;;;;33.00;31.70;;;17.90;77.50;;;;;;5107789;28;20027;-80
2022/09/12 05:22:08;;;;;;;34.03;32.72;;;17.90;77.50;;;;;;5090746;28;20289;-80
2022/09/12 05:24:34;;;;;;;32.67;31.38;;;18.00;77.60;;;;;;5108667;28;20036;-80
2022/09/12 05:27:02;;;;;;;;;;;18.00;77.60;;;;;;5108178;28;20031;-80
2022/09/12 05:29:28;;;;;;;32.50;31.20;;;18.00;77.60;;;;;;5108730;28;20356;-80
2022/09/12 05:31:54;;;;;;;31.20;30.00;;;18.00;77.50;;;;;;5107241;28;20490;-80
2022/09/12 05:34:20;;;;;;;33.03;31.73;;;18.00;77.50;;;;;;5108749;28;20035;-80
2022/09/12 05:36:46;;;;;;;33.15;31.85;;;18.10;77.60;;;;;;5108632;28;20028;-80
2022/09/12 05:39:11;;;;;;;31.08;29.88;;;18.10;77.50;;;;;;5108566;28;20024;-80
2022/09/12 05:41:37;;;;;;;32.97;31.67;;;18.10;77.50;;;;;;5107157;28;20042;-80
2022/09/12 05:44:05;;;;;;;34.13;32.83;;;18.10;77.40;;;;;;5106876;28;20028;-80
2022/09/12 05:46:37;;;;;;;32.47;31.17;;;18.20;77.50;;;;;;5108416;28;20024;-80
2022/09/12 05:49:08;;;;;;;32.75;31.45;;;18.20;77.40;;;;;;5106948;28;20050;-79
2022/09/12 05:51:37;;;;;;;31.52;30.33;;;18.20;77.40;;;;;;5108747;28;20055;-80
2022/09/12 05:54:04;;;;;;;32.70;31.40;;;18.30;77.40;;;;;;5106557;28;20552;-81
2022/09/12 05:56:32;;;;;;;35.08;33.67;;;18.30;77.40;;;;;;5107936;28;20051;-80
2022/09/12 05:59:04;;;;;;;31.52;30.33;;;18.30;77.30;;;;;;5106390;28;20027;-80
2022/09/12 06:01:34;;;;;;;33.95;32.65;;;18.30;77.30;;;;;;5106683;28;20032;-80
2022/09/12 06:04:03;;;;;;;33.58;32.28;;;18.30;77.30;;;;;;5109388;28;20053;-80
2022/09/12 06:06:30;;;;;;;30.27;29.08;;;18.30;77.30;;;;;;5108313;28;20020;-80
2022/09/12 06:08:59;;;;;;;30.25;29.05;;;18.30;77.30;;;;;;5108389;28;20101;-80
2022/09/12 06:11:28;;;;;;;30.38;29.17;;;18.30;77.40;;;;;;5109232;28;20012;-80
2022/09/12 06:13:56;;;;;;;31.00;29.80;;;18.30;77.40;;;;;;5106427;28;20497;-80
2022/09/12 06:16:24;;;;;;;32.47;31.17;;;18.30;77.60;;;;;;5106404;28;20452;-80
2022/09/12 06:18:53;;;;;;;31.00;29.80;;;18.30;77.60;;;;;;5106492;28;20496;-80
2022/09/12 06:21:20;;;;;;;31.15;29.95;;;18.20;77.60;;;;;;5106427;28;20118;-80
2022/09/12 06:23:46;;;;;;;28.95;27.85;;;18.30;77.70;;;;;;5106204;28;20056;-80
2022/09/12 06:26:14;;;;;;;30.48;29.27;;;18.30;77.60;;;;;;5107681;28;20012;-80
2022/09/12 06:28:41;;;;;;;33.00;31.70;;;18.40;77.60;;;;;;5107753;28;20032;-80
2022/09/12 06:31:13;;;;;;;29.95;28.75;;;18.40;77.60;;;;;;5106340;28;20384;-80
2022/09/12 06:33:41;;;;;;;29.75;28.55;;;18.40;77.50;;;;;;5107644;28;20027;-80
2022/09/12 06:36:14;;;;;;;30.08;28.88;;;18.40;77.50;;;;;;5107293;28;20024;-80
2022/09/12 06:38:41;;;;;;;30.60;29.40;;;18.40;77.60;;;;;;5107411;28;20027;-79
2022/09/12 06:41:10;;;;;;;32.45;31.15;;;18.40;77.60;;;;;;5106054;28;20479;-79
2022/09/12 06:43:36;;;;;;;30.58;29.38;;;18.40;77.50;;;;;;5105851;28;20510;-80
2022/09/12 06:46:02;;;;;;;30.48;29.27;;;18.40;77.60;;;;;;5107324;28;20024;-79
2022/09/12 06:48:28;;;;;;;29.48;28.33;;;18.40;77.60;;;;;;5107534;28;20078;-80
2022/09/12 06:51:09;;;;;;;30.98;29.77;;;18.40;77.60;;;;;;5106151;28;20498;-80
2022/09/12 06:53:35;;;;;;;30.48;29.27;;;18.40;77.60;;;;;;5107813;28;20427;-80
2022/09/12 06:56:07;;;;;;;31.48;30.27;;;18.40;77.60;;;;;;5106432;28;20038;-80
2022/09/12 06:58:34;;;;;;;30.63;29.42;;;18.40;77.60;;;;;;5108272;28;20043;-79
2022/09/12 07:01:05;;;;;;;32.50;31.20;;;18.40;77.60;;;;;;5107222;28;20019;-80
2022/09/12 07:03:31;;;;;;;31.55;30.35;;;18.40;77.70;;;;;;5105612;28;20479;-80
2022/09/12 07:06:01;;;;;;;32.25;30.95;;;18.40;77.70;;;;;;5106084;28;20387;-80
2022/09/12 07:08:30;;;;;;;29.55;28.38;;;18.40;77.60;;;;;;5105743;28;20394;-80
2022/09/12 07:10:58;;;;;;;32.75;31.45;;;18.40;77.60;;;;;;5109949;28;20035;-80
2022/09/12 07:13:24;;;;;;;30.48;29.27;;;18.40;77.60;;;;;;5109838;28;20032;-79
2022/09/12 07:15:50;;;;;;;31.27;30.08;;;18.40;77.60;;;;;;5109964;28;20035;-80
2022/09/12 07:18:16;;;;;;;30.83;29.63;;;18.40;77.60;;;;;;5110098;28;20034;-80
2022/09/12 07:20:42;;;;;;;30.58;29.38;;;18.40;77.60;;;;;;5111247;28;20031;-80
2022/09/12 07:23:08;;;;;;;31.23;30.02;;;18.40;77.60;;;;;;5109605;28;20043;-80
2022/09/12 07:25:34;;;;;;;30.15;28.95;;;18.50;77.60;;;;;;5110889;28;20036;-81
2022/09/12 07:28:00;;;;;;;29.90;28.70;;;18.50;77.60;;;;;;5109901;28;20110;-80
2022/09/12 07:30:25;;;;;;;32.80;31.50;;;18.50;77.60;;;;;;5110660;28;20027;-81
2022/09/12 07:32:52;;;;;;;28.98;27.88;;;18.50;77.50;;;;;;5109447;28;20127;-80
2022/09/12 07:35:19;;;;;;;31.55;30.35;;;18.50;77.50;;;;;;5110674;28;20227;-81
2022/09/12 07:37:44;;;;;;;27.08;25.98;;;18.50;77.50;;;;;;5109616;28;20050;-81
2022/09/12 07:40:10;;;;;;;28.15;27.05;;;18.50;77.60;;;;;;5110627;28;20032;-80
2022/09/12 07:42:36;;;;;;;27.58;26.48;;;18.50;77.80;;;;;;5110418;28;20060;-80
2022/09/12 07:45:02;;;;;;;27.58;26.48;;;18.50;77.80;;;;;;5108900;28;20143;-80
2022/09/12 07:47:28;;;;;;;;;;;18.50;78.00;;;;;;5092892;28;20524;-80
2022/09/12 07:49:53;;;;;;;28.05;26.95;;;18.60;78.10;;;;;;5108946;28;20002;-80
2022/09/12 07:52:19;;;;;;;27.75;26.65;;;18.70;77.90;;;;;;5110438;28;20047;-80
2022/09/12 07:54:45;;;;;;;23.88;22.95;;;18.70;77.80;;;;;;5091892;28;20506;-80
2022/09/12 07:57:10;;;;;;;25.92;24.92;;;18.80;78.00;;;;;;5109932;28;20062;-80
2022/09/12 07:59:41;;;;;;;23.55;22.65;;;18.90;78.00;;;;;;5110018;28;20031;-81
2022/09/12 08:02:15;;;;;;;21.80;20.90;;;19.00;77.90;;;;;;5092528;28;20114;-80
2022/09/12 08:04:41;;;;;;;21.30;20.42;;;19.00;78.00;;;;;;5109734;28;20117;-80
2022/09/12 08:07:08;;;;;;;20.85;20.05;;;19.10;78.00;;;;;;5091571;28;20051;-80
2022/09/12 08:09:34;;;;;;;20.00;19.20;;;19.10;78.10;;;;;;5108714;28;20031;-81
2022/09/12 08:12:01;;;;;;;22.15;21.25;;;19.20;78.20;;;;;;5108666;28;20016;-79
2022/09/12 08:14:26;;;;;;;17.30;16.60;;;19.30;78.20;;;;;;5110346;28;20148;-80
2022/09/12 08:16:52;;;;;;;23.50;22.60;;;19.40;78.10;;;;;;5109923;28;20027;-80
2022/09/12 08:19:18;;;;;;;;;;;19.50;78.00;;;;;;5108625;28;20419;-80
2022/09/12 08:21:44;;;;;;;22.23;21.33;;;19.50;78.00;;;;;;5106882;28;19914;-80
2022/09/12 08:24:11;;;;;;;19.27;18.48;;;19.60;78.10;;;;;;5109394;28;20019;-80
2022/09/12 08:26:37;;;;;;;15.10;14.48;;;19.70;78.10;;;;;;5109314;28;20043;-80
2022/09/12 08:29:03;;;;;;;13.70;13.10;;;19.80;78.00;;;;;;5091308;28;20484;-80
2022/09/12 08:31:35;;;;;;;20.55;19.75;;;19.90;78.00;;;;;;5108121;28;20024;-80
2022/09/12 08:34:02;;;;;;;22.88;21.98;;;20.00;77.80;;;;;;5109335;28;20387;-80
2022/09/12 08:36:28;;;;;;;16.17;15.48;;;20.00;77.70;;;;;;5108006;28;20062;-80
2022/09/12 08:39:00;;;;;;;18.92;18.13;;;20.00;77.60;;;;;;5107880;28;20071;-78
2022/09/12 08:41:34;;;;;;;20.23;19.42;;;20.00;77.60;;;;;;5108678;28;20030;-76
2022/09/12 08:44:28;;;;;;;21.75;20.85;;;19.90;77.70;;;;;;5108998;28;20483;-81
2022/09/12 08:47:03;;;;;;;17.52;16.83;;;19.90;77.80;;;;;;5109409;28;20499;-80
2022/09/12 08:49:37;;;;;;;18.30;17.55;;;19.80;77.90;;;;;;5107813;28;20024;-80
2022/09/12 08:52:14;;;;;;;17.92;17.23;;;19.70;78.00;;;;;;5107838;28;20048;-79
2022/09/12 08:54:44;;;;;;;15.68;14.98;;;19.60;78.10;;;;;;5107687;28;20114;-80
2022/09/12 08:57:10;;;;;;;14.75;14.15;;;19.70;78.70;;;;;;5107502;28;20071;-80
2022/09/12 08:59:39;;;;;;;15.90;15.20;;;19.80;78.20;;;;;;5073995;28;20052;-79
2022/09/12 09:02:19;;;;;;;19.52;18.73;;;19.90;78.10;;;;;;5108744;28;20080;-78
2022/09/12 09:04:55;;;;;;;14.07;13.48;;;19.90;78.10;;;;;;5107317;28;20453;-80
2022/09/12 09:07:39;;;;;;;18.15;17.45;;;19.90;78.10;;;;;;5108896;28;20047;-80
2022/09/12 09:10:29;;;;;;;16.63;15.93;;;20.00;78.20;;;;;;5107082;28;20535;-81
2022/09/12 09:14:46;;;;;;;19.40;18.60;;;19.90;78.10;;;;;;5108807;28;20326;-80
2022/09/12 09:16:38;;;;;;;17.83;17.13;;;20.00;78.40;;;;;;5107615;28;20028;-80
2022/09/12 09:19:14;;;;;;;20.40;19.60;;;20.10;78.50;;;;;;5090948;28;20451;-80
2022/09/12 09:21:44;;;;;;;14.70;14.10;;;20.30;78.30;;;;;;5108825;28;20092;-80
2022/09/12 09:24:15;;;;;;;16.80;16.10;;;20.40;78.20;;;;;;5106942;28;20020;-80
2022/09/12 09:26:50;;;;;;;11.73;11.23;;;20.40;78.10;;;;;;5108939;28;20380;-81
2022/09/12 09:29:21;;;;;;;12.35;11.77;;;20.40;78.10;;;;;;5108440;28;20070;-80
2022/09/12 09:31:59;;;;;;;14.95;14.35;;;20.40;78.30;;;;;;5108534;28;20018;-80
2022/09/12 09:34:30;;;;;;;11.60;11.10;;;20.60;78.60;;;;;;5108013;28;20119;-80
2022/09/12 09:37:38;;;;;;;16.30;15.60;;;20.80;78.30;;;;;;5107060;28;20023;-80
2022/09/12 09:40:26;;;;;;;14.43;13.82;;;21.00;78.20;;;;;;5108103;28;20023;-80
2022/09/12 09:42:52;;;;;;;9.95;9.45;;;21.30;78.00;;;;;;5108233;28;20474;-80
2022/09/12 09:45:24;;;;;;;13.40;12.80;;;21.50;78.10;;;;;;5108286;28;20058;-79
2022/09/12 09:48:01;;;;;;;10.23;9.73;;;21.70;78.10;;;;;;5107817;28;20051;-80
2022/09/12 09:50:27;;;;;;;8.95;8.55;;;21.90;78.00;;;;;;5107960;28;20028;-80
2022/09/12 09:52:56;;;;;;;10.90;10.40;;;22.00;78.00;;;;;;5107692;28;20032;-80
2022/09/12 09:55:27;;;;;;;5.13;4.82;;;22.10;78.10;;;;;;5107767;28;20028;-80
2022/09/12 09:57:52;;;;;;;5.72;5.43;;;22.10;78.00;;;;;;5107468;28;20051;-79
2022/09/12 10:00:32;;;;;;;;;;;22.10;78.00;;;;;;5106969;28;20454;-80
2022/09/12 10:03:12;;;;;;;4.85;4.55;;;22.00;78.00;;;;;;5107245;28;19974;-80
2022/09/12 10:05:53;;;;;;;4.78;4.47;;;22.10;78.20;;;;;;5106520;28;20349;-80
2022/09/12 10:08:46;;;;;;;5.68;5.38;;;22.10;78.10;;;;;;5106528;28;20484;-80
2022/09/12 10:11:14;;;;;;;7.93;7.53;;;22.00;78.00;;;;;;5103217;28;20032;-80
2022/09/12 10:13:43;;;;;;;7.10;6.70;;;22.00;78.00;;;;;;5106192;28;20026;-80
2022/09/12 10:16:33;;;;;;;5.43;5.13;;;21.90;78.00;;;;;;5107606;28;20024;-80
2022/09/12 10:19:01;;;;;;;6.47;6.07;;;21.70;77.90;;;;;;5107964;28;20098;-80
2022/09/12 10:21:36;;;;;;;5.90;5.60;;;21.50;78.00;;;;;;5107574;28;20024;-77
2022/09/12 10:24:27;;;;;;;7.30;6.90;;;21.40;78.20;;;;;;5108213;28;20429;-80
2022/09/12 10:27:05;;;;;;;8.30;7.90;;;21.40;78.10;;;;;;5107415;28;20019;-80
2022/09/12 10:29:35;;;;;;;8.63;8.23;;;21.40;77.90;;;;;;5107449;28;20023;-82
2022/09/12 10:32:07;;;;;;;9.02;8.63;;;21.50;77.90;;;;;;5107379;28;20027;-80
2022/09/12 10:34:41;;;;;;;7.03;6.63;;;21.50;77.90;;;;;;5107631;28;20027;-80
2022/09/12 10:37:09;;;;;;;7.63;7.22;;;21.50;77.80;;;;;;5108034;28;20027;-80
2022/09/12 10:39:37;;;;;;;8.60;8.20;;;21.50;77.80;;;;;;5108061;28;20543;-80
2022/09/12 10:42:04;;;;;;;6.40;6.03;;;21.60;78.40;;;;;;5108296;28;20118;-80
2022/09/12 10:44:32;;;;;;;6.60;6.20;;;21.60;77.90;;;;;;5108870;28;20032;-80
2022/09/12 10:47:18;;;;;;;4.68;4.38;;;21.80;78.00;;;;;;5111157;28;20023;-81
2022/09/12 10:49:43;;;;;;;5.57;5.28;;;21.90;77.90;;;;;;5112906;28;20020;-79
2022/09/12 10:52:16;;;;;;;;;;;21.90;77.80;;;;;;5114290;28;20031;-79
2022/09/12 10:54:42;;;;;;;4.45;4.15;;;21.90;77.80;;;;;;5099444;28;19943;-79
2022/09/12 10:57:14;;;;;;;;;;;21.80;77.60;;;;;;5075411;28;20444;-79
2022/09/12 11:00:19;;;;;;;7.80;7.40;;;21.70;77.70;;;;;;5092660;28;19987;-79
2022/09/12 11:03:14;;;;;;;7.53;7.13;;;21.60;77.90;;;;;;5093321;28;20031;-79
2022/09/12 11:05:51;;;;;;;7.85;7.45;;;21.60;78.00;;;;;;5114823;27;20034;-79
2022/09/12 11:08:28;;;;;;;10.40;9.90;;;21.70;78.00;;;;;;5130850;27;20015;-79
2022/09/12 11:11:06;;;;;;;8.32;7.93;;;21.80;78.10;;;;;;5131099;27;20558;-79
2022/09/12 11:13:57;;;;;;;7.13;6.72;;;22.00;78.20;;;;;;5130298;27;20028;-79
2022/09/12 11:16:22;;;;;;;7.75;7.35;;;22.10;77.80;;;;;;5127695;27;20113;-79
2022/09/12 11:18:48;;;;;;;;;;;22.20;77.70;;;;;;5131072;27;20106;-80
2022/09/12 11:21:28;;;;;;;5.35;5.05;;;22.20;77.70;;;;;;5130799;27;19958;-79
2022/09/12 11:24:22;;;;;;;6.90;6.50;;;22.20;77.80;;;;;;5130354;27;20106;-79
2022/09/12 11:27:11;;;;;;;4.35;4.05;;;22.30;77.70;;;;;;5117675;27;20023;-79
2022/09/12 11:29:56;;;;;;;6.18;5.85;;;22.30;77.70;;;;;;5102878;28;20047;-79
2022/09/12 11:32:42;;;;;;;4.60;4.30;;;22.40;77.70;;;;;;5111304;28;20486;-80
2022/09/12 11:35:14;;;;;;;4.15;3.85;;;22.40;77.80;;;;;;5112338;28;20041;-78
2022/09/12 11:38:06;;;;;;;5.60;5.30;;;22.50;77.90;;;;;;5111774;28;20108;-78
2022/09/12 11:40:34;;;;;;;5.47;5.18;;;22.50;78.00;;;;;;5112507;28;20028;-80
2022/09/12 11:43:08;;;;;;;3.03;2.83;;;22.60;78.10;;;;;;5111476;28;20047;-78
2022/09/12 11:45:42;;;;;;;2.63;2.42;;;22.50;78.10;;;;;;5112827;28;20471;-78
2022/09/12 11:48:26;;;;;;;4.00;3.70;;;22.40;78.20;;;;;;5112466;28;20090;-78
2022/09/12 11:50:52;;;;;;;4.55;4.25;;;22.30;78.20;;;;;;5112419;28;20041;-77
2022/09/12 11:53:21;;;;;;;;;;;22.20;78.10;;;;;;5112312;28;20028;-78
2022/09/12 11:56:16;;;;;;;6.38;6.00;;;22.00;78.00;;;;;;5112010;28;19911;-77
2022/09/12 11:58:47;;;;;;;5.93;5.63;;;21.80;78.10;;;;;;5107858;28;20039;-77
2022/09/12 12:01:31;;;;;;;5.40;5.10;;;21.70;78.10;;;;;;5110306;28;20023;-79
2022/09/12 12:04:02;;;;;;;7.03;6.63;;;21.60;78.30;;;;;;5111821;28;20024;-79
2022/09/12 12:06:39;;;;;;;8.27;7.88;;;21.50;78.30;;;;;;5110374;28;20039;-77
2022/09/12 12:09:04;;;;;;;;;;;21.40;78.30;;;;;;5111772;28;20020;-78
2022/09/12 12:11:36;;;;;;;7.45;7.05;;;21.40;78.30;;;;;;5111412;28;19922;-79
2022/09/12 12:14:12;;;;;;;11.07;10.57;;;21.40;78.10;;;;;;5111735;28;20044;-79
2022/09/12 12:16:39;;;;;;;;;;;21.30;78.20;;;;;;5111062;28;20038;-77
2022/09/12 12:19:13;;;;;;;8.23;7.83;;;21.30;78.20;;;;;;5111956;28;20360;-79
2022/09/12 12:21:43;;;;;;;12.43;11.85;;;21.30;78.10;;;;;;5111848;28;20253;-80
2022/09/12 12:24:12;;;;;;;12.98;12.38;;;21.30;78.10;;;;;;5111609;28;20053;-77
2022/09/12 12:26:37;;;;;;;12.30;11.75;;;21.30;78.20;;;;;;5111587;28;20034;-77
2022/09/12 12:29:04;;;;;;;;;;;21.30;78.20;;;;;;5111906;28;20028;-76
2022/09/12 12:31:30;;;;;;;6.95;6.55;;;21.40;78.20;;;;;;5109530;28;19903;-77
2022/09/12 12:34:00;;;;;;;;;;;21.40;78.70;;;;;;5111997;28;20506;-76
2022/09/12 12:36:29;;;;;;;6.30;5.97;;;21.50;78.30;;;;;;5097117;28;20007;-76
2022/09/12 12:38:54;;;;;;;7.20;6.80;;;21.50;78.20;;;;;;5090755;28;20372;-77
2022/09/12 12:41:20;;;;;;;;;;;21.40;78.20;;;;;;5106435;28;20028;-77
2022/09/12 12:43:53;;;;;;;7.40;7.00;;;21.40;78.20;;;;;;5111255;28;19911;-77
2022/09/12 12:46:26;;;;;;;6.93;6.53;;;21.30;78.30;;;;;;5111405;28;20028;-77
2022/09/12 12:49:27;;;;;;;7.35;6.95;;;21.40;78.50;;;;;;5109691;28;20464;-76
2022/09/12 12:51:52;;;;;;;5.72;5.43;;;21.40;78.50;;;;;;5110679;28;20042;-76
2022/09/12 12:54:27;;;;;;;;;;;21.50;78.40;;;;;;5109635;28;20061;-78
2022/09/12 12:57:13;;;;;;;5.38;5.07;;;21.50;78.40;;;;;;5110091;28;19939;-76
2022/09/12 12:59:49;;;;;;;8.93;8.52;;;21.30;78.30;;;;;;5110161;28;20056;-77
2022/09/12 13:02:27;;;;;;;8.65;8.25;;;21.20;78.40;;;;;;5108957;28;20055;-79
2022/09/12 13:04:54;;;;;;;8.88;8.48;;;21.00;78.40;;;;;;5110488;28;20043;-78